createdAt,value
2018-12-27T00:01:48.835Z,50.80
2018-12-27T00:04:31.926Z,50.97
2018-12-27T00:07:22.398Z,45.60
2018-12-27T00:10:04.240Z,42.60
2018-12-27T00:16:17.366Z,42.60
2018-12-27T00:19:00.386Z,43.70
2018-12-27T00:21:43.112Z,38.90
2018-12-27T00:27:53.861Z,44.17
2018-12-27T00:30:37.082Z,44.93
2018-12-27T00:33:27.738Z,42.47
2018-12-27T00:36:09.624Z,39.90
2018-12-27T00:39:00.299Z,40.87
2018-12-27T00:41:44.951Z,44.37
2018-12-27T00:47:37.191Z,37.93
2018-12-27T00:50:18.923Z,38.10
2018-12-27T00:53:09.570Z,44.40
2018-12-27T00:55:52.557Z,40.20
2018-12-27T00:58:36.841Z,43.00
2018-12-27T01:01:18.583Z,41.70
2018-12-27T01:04:09.349Z,40.93
2018-12-27T01:06:52.941Z,33.90
2018-12-27T01:09:43.596Z,41.73
2018-12-27T01:12:27.269Z,47.50
2018-12-27T01:18:44.498Z,39.03
2018-12-27T01:21:28.068Z,40.90
2018-12-27T01:24:10.976Z,42.03
2018-12-27T01:33:24.436Z,47.37
2018-12-27T01:36:13.383Z,43.30
2018-12-27T01:42:31.338Z,39.67
2018-12-27T01:45:14.985Z,40.27
2018-12-27T01:47:58.443Z,36.37
2018-12-27T01:50:49.142Z,41.97
2018-12-27T01:53:32.540Z,36.70
2018-12-27T01:59:43.177Z,34.33
2018-12-27T02:02:26.625Z,45.40
2018-12-27T02:05:10.063Z,38.83
2018-12-27T02:08:00.700Z,35.00
2018-12-27T02:10:42.326Z,38.60
2018-12-27T02:13:32.953Z,42.83
2018-12-27T02:16:16.578Z,37.63
2018-12-27T02:19:07.309Z,38.00
2018-12-27T02:21:49.071Z,37.30
2018-12-27T02:24:39.789Z,39.67
2018-12-27T02:27:23.159Z,38.57
2018-12-27T02:33:40.215Z,32.93
2018-12-27T02:36:23.753Z,37.97
2018-12-27T02:39:14.402Z,33.97
2018-12-27T02:41:57.490Z,38.00
2018-12-27T02:44:48.215Z,38.40
2018-12-27T02:47:31.364Z,34.20
2018-12-27T02:50:21.990Z,43.07
2018-12-27T02:53:05.271Z,38.43
2018-12-27T02:55:55.987Z,39.87
2018-12-27T02:58:39.441Z,39.70
2018-12-27T03:01:30.121Z,33.23
2018-12-27T03:04:13.601Z,31.10
2018-12-27T03:07:23.333Z,31.93
2018-12-27T03:10:12.438Z,35.73
2018-12-27T03:13:03.082Z,36.63
2018-12-27T03:15:46.622Z,30.33
2018-12-27T03:18:37.368Z,26.33
2018-12-27T03:21:20.491Z,30.90
2018-12-27T03:24:21.194Z,34.07
2018-12-27T03:27:11.810Z,29.07
2018-12-27T03:29:55.158Z,29.00
2018-12-27T03:32:45.888Z,26.93
2018-12-27T03:35:29.429Z,31.23
2018-12-27T03:38:20.062Z,25.97
2018-12-27T03:41:03.569Z,29.10
2018-12-27T03:47:17.036Z,30.37
2018-12-27T03:50:00.526Z,31.73
2018-12-27T03:52:42.146Z,30.43
2018-12-27T03:55:32.855Z,30.50
2018-12-27T03:58:16.160Z,25.70
2018-12-27T04:04:20.087Z,27.20
2018-12-27T04:07:03.466Z,26.67
2018-12-27T04:09:46.654Z,28.03
2018-12-27T04:12:56.340Z,27.07
2018-12-27T04:15:39.869Z,26.23
2018-12-27T04:21:55.309Z,25.97
2018-12-27T04:24:38.676Z,22.60
2018-12-27T04:27:22.294Z,26.67
2018-12-27T04:33:35.538Z,21.23
2018-12-27T04:36:18.558Z,21.87
2018-12-27T04:39:02.148Z,24.20
2018-12-27T04:45:14.357Z,23.63
2018-12-27T04:47:57.618Z,21.27
2018-12-27T04:50:41.141Z,27.93
2018-12-27T04:59:55.626Z,22.10
2018-12-27T05:02:38.677Z,25.17
2018-12-27T05:05:21.500Z,26.30
2018-12-27T05:08:04.831Z,22.87
2018-12-27T05:10:48.353Z,21.80
2018-12-27T05:20:03.021Z,26.50
2018-12-27T05:22:45.806Z,25.97
2018-12-27T05:29:03.207Z,25.50
2018-12-27T05:31:46.066Z,25.80
2018-12-27T05:34:28.874Z,23.33
2018-12-27T05:40:39.506Z,24.70
2018-12-27T05:43:22.751Z,23.23
2018-12-27T05:46:06.155Z,29.30
2018-12-27T05:48:56.673Z,26.23
2018-12-27T05:51:39.508Z,25.30
2018-12-27T05:54:29.977Z,26.00
2018-12-27T05:57:12.816Z,31.87
2018-12-27T06:03:25.882Z,23.73
2018-12-27T06:06:09.180Z,30.50
2018-12-27T06:08:52.389Z,30.47
2018-12-27T06:18:04.473Z,26.90
2018-12-27T06:20:47.940Z,21.43
2018-12-27T06:26:39.982Z,26.10
2018-12-27T06:29:23.454Z,23.20
2018-12-27T06:35:42.469Z,20.77
2018-12-27T06:38:25.626Z,26.77
2018-12-27T06:41:09.053Z,23.10
2018-12-27T06:47:19.809Z,19.90
2018-12-27T06:50:03.088Z,21.87
2018-12-27T06:52:45.925Z,26.23
2018-12-27T06:59:03.019Z,24.13
2018-12-27T07:01:46.223Z,22.03
2018-12-27T07:04:29.790Z,25.40
2018-12-27T07:10:40.493Z,33.10
2018-12-27T07:13:25.453Z,28.63
2018-12-27T07:16:08.337Z,27.80
2018-12-27T07:18:58.850Z,30.67
2018-12-27T07:21:42.342Z,29.80
2018-12-27T07:24:32.877Z,25.87
2018-12-27T07:27:16.105Z,27.17
2018-12-27T07:36:41.161Z,24.00
2018-12-27T07:39:31.743Z,21.93
2018-12-27T07:42:14.850Z,28.20
2018-12-27T07:48:31.760Z,21.57
2018-12-27T07:51:15.052Z,24.17
2018-12-27T07:53:58.424Z,21.07
2018-12-27T07:56:48.874Z,29.90
2018-12-27T07:59:32.221Z,28.30
2018-12-27T08:05:37.995Z,24.57
2018-12-27T08:08:21.307Z,22.40
2018-12-27T08:11:04.062Z,24.67
2018-12-27T08:20:16.233Z,20.70
2018-12-27T08:22:59.672Z,21.63
2018-12-27T08:28:51.774Z,15.53
2018-12-27T08:31:34.894Z,16.37
2018-12-27T08:34:17.696Z,17.87
2018-12-27T08:40:30.678Z,15.63
2018-12-27T08:43:13.923Z,15.33
2018-12-27T08:45:57.468Z,19.50
2018-12-27T08:52:07.853Z,16.90
2018-12-27T08:54:51.298Z,20.10
2018-12-27T08:57:34.569Z,17.67
2018-12-27T09:00:25.110Z,13.53
2018-12-27T09:03:08.759Z,18.77
2018-12-27T09:05:52.337Z,20.27
2018-12-27T09:09:01.772Z,23.90
2018-12-27T09:11:46.334Z,16.83
2018-12-27T09:14:55.793Z,16.93
2018-12-27T09:17:40.883Z,18.53
2018-12-27T09:20:50.347Z,20.70
2018-12-27T09:23:33.632Z,16.87
2018-12-27T09:26:24.169Z,16.17
2018-12-27T09:29:07.006Z,16.70
2018-12-27T09:32:16.427Z,19.27
2018-12-27T09:35:00.082Z,20.00
2018-12-27T09:37:43.752Z,17.17
2018-12-27T09:40:34.301Z,19.67
2018-12-27T09:43:17.525Z,21.83
2018-12-27T09:46:08.231Z,18.37
2018-12-27T09:48:49.781Z,14.87
2018-12-27T09:58:02.542Z,20.63
2018-12-27T10:00:45.321Z,18.67
2018-12-27T10:06:48.441Z,24.13
2018-12-27T10:09:31.188Z,18.77
2018-12-27T10:12:14.734Z,20.27
2018-12-27T10:15:05.806Z,17.50
2018-12-27T10:17:48.564Z,16.27
2018-12-27T10:20:39.007Z,17.27
2018-12-27T10:23:22.182Z,16.20
2018-12-27T10:26:12.821Z,18.30
2018-12-27T10:28:54.340Z,18.80
2018-12-27T10:31:44.886Z,21.50
2018-12-27T10:34:28.259Z,20.10
2018-12-27T10:37:19.074Z,27.10
2018-12-27T10:40:02.379Z,19.93
2018-12-27T10:42:52.972Z,19.80
2018-12-27T10:45:36.122Z,20.50
2018-12-27T10:48:26.575Z,23.07
2018-12-27T10:51:10.157Z,30.40
2018-12-27T10:54:00.682Z,17.40
2018-12-27T10:56:43.915Z,15.37
2018-12-27T10:59:34.450Z,16.40
2018-12-27T11:02:17.554Z,13.63
2018-12-27T11:05:08.103Z,22.93
2018-12-27T11:07:51.602Z,16.60
2018-12-27T11:10:43.130Z,17.77
2018-12-27T11:13:25.949Z,15.40
2018-12-27T11:16:16.556Z,14.47
2018-12-27T11:18:59.815Z,16.13
2018-12-27T11:25:17.170Z,12.83
2018-12-27T11:28:00.508Z,20.40
2018-12-27T11:30:44.029Z,12.67
2018-12-27T11:33:34.575Z,11.30
2018-12-27T11:36:17.763Z,14.30
2018-12-27T11:39:08.306Z,14.13
2018-12-27T11:41:51.069Z,12.27
2018-12-27T11:44:41.589Z,13.30
2018-12-27T11:47:25.077Z,13.80
2018-12-27T11:50:15.630Z,15.80
2018-12-27T11:52:58.609Z,15.23
2018-12-27T11:55:49.110Z,12.07
2018-12-27T11:58:31.894Z,12.90
2018-12-27T12:01:22.395Z,12.90
2018-12-27T12:04:06.090Z,12.80
2018-12-27T12:06:56.634Z,14.27
2018-12-27T12:09:47.201Z,13.87
2018-12-27T12:12:29.945Z,20.37
2018-12-27T12:15:12.726Z,13.60
2018-12-27T12:18:03.237Z,15.47
2018-12-27T12:20:44.760Z,16.30
2018-12-27T12:23:35.287Z,14.60
2018-12-27T12:26:16.783Z,17.23
2018-12-27T12:29:07.334Z,17.80
2018-12-27T12:31:50.936Z,17.13
2018-12-27T12:34:41.510Z,18.13
2018-12-27T12:37:24.276Z,21.20
2018-12-27T12:40:14.823Z,20.97
2018-12-27T12:42:57.658Z,21.90
2018-12-27T12:45:48.152Z,18.87
2018-12-27T12:48:31.592Z,20.50
2018-12-27T12:54:25.138Z,26.10
2018-12-27T12:57:15.685Z,26.83
2018-12-27T12:59:58.508Z,25.57
2018-12-27T13:02:49.124Z,26.77
2018-12-27T13:05:32.363Z,24.87
2018-12-27T13:08:15.997Z,29.80
2018-12-27T13:11:06.587Z,30.10
2018-12-27T13:13:49.716Z,30.50
2018-12-27T13:16:33.269Z,29.77
2018-12-27T13:19:23.852Z,39.80
2018-12-27T13:22:09.077Z,30.90
2018-12-27T13:24:59.594Z,33.43
2018-12-27T13:27:43.130Z,36.47
2018-12-27T13:30:33.674Z,35.23
2018-12-27T13:33:17.090Z,30.83
2018-12-27T13:39:09.767Z,34.53
2018-12-27T13:42:00.309Z,32.77
2018-12-27T13:44:43.701Z,29.40
2018-12-27T13:47:34.207Z,32.83
2018-12-27T13:50:17.539Z,36.37
2018-12-27T13:53:08.034Z,28.87
2018-12-27T13:55:51.351Z,36.13
2018-12-27T13:58:41.876Z,29.80
2018-12-27T14:01:25.198Z,28.20
2018-12-27T14:04:15.725Z,30.17
2018-12-27T14:06:59.198Z,32.87
2018-12-27T14:09:41.908Z,30.77
2018-12-27T14:12:32.491Z,28.17
2018-12-27T14:15:15.614Z,28.03
2018-12-27T14:17:58.388Z,33.33
2018-12-27T14:20:48.926Z,32.13
2018-12-27T14:23:32.346Z,28.60
2018-12-27T14:26:22.852Z,30.40
2018-12-27T14:29:06.427Z,28.97
2018-12-27T14:31:56.971Z,31.57
2018-12-27T14:34:40.167Z,31.10
2018-12-27T14:40:53.510Z,36.30
2018-12-27T14:43:36.980Z,32.53
2018-12-27T14:46:28.266Z,31.30
2018-12-27T14:49:11.851Z,36.23
2018-12-27T14:52:02.359Z,36.27
2018-12-27T14:54:45.306Z,44.47
2018-12-27T15:00:44.168Z,38.80
2018-12-27T15:03:34.789Z,41.80
2018-12-27T15:06:18.272Z,43.03
2018-12-27T15:09:09.181Z,43.73
2018-12-27T15:11:52.849Z,44.70
2018-12-27T15:18:03.677Z,43.77
2018-12-27T15:20:52.411Z,38.87
2018-12-27T15:26:51.190Z,41.47
2018-12-27T15:29:41.728Z,40.33
2018-12-27T15:32:24.409Z,44.87
2018-12-27T15:35:14.995Z,37.43
2018-12-27T15:37:58.461Z,42.40
2018-12-27T15:40:49.068Z,48.23
2018-12-27T15:43:32.480Z,44.20
2018-12-27T15:46:23.039Z,51.03
2018-12-27T15:49:06.516Z,48.70
2018-12-27T15:51:59.992Z,47.07
2018-12-27T15:54:43.167Z,46.33
2018-12-27T15:57:33.714Z,48.50
2018-12-27T16:00:17.322Z,43.47
2018-12-27T16:03:07.900Z,45.67
2018-12-27T16:05:51.420Z,42.33
2018-12-27T16:08:41.988Z,44.60
2018-12-27T16:11:25.230Z,46.40
2018-12-27T16:14:15.813Z,47.93
2018-12-27T16:16:58.924Z,45.47
2018-12-27T16:34:59.764Z,53.70
2018-12-27T16:37:43.333Z,57.93
2018-12-27T16:40:33.891Z,54.77
2018-12-27T16:43:16.733Z,53.20
2018-12-27T16:46:07.256Z,59.40
2018-12-27T16:49:09.306Z,70.67
2018-12-27T17:01:04.692Z,55.80
2018-12-27T17:03:47.463Z,55.13
2018-12-27T17:10:00.559Z,56.87
2018-12-27T17:12:42.264Z,57.93
2018-12-27T17:15:32.830Z,64.17
2018-12-27T17:18:15.735Z,70.07
2018-12-27T17:21:06.311Z,67.40
2018-12-27T17:23:49.585Z,66.90
2018-12-27T17:26:40.165Z,68.93
2018-12-27T17:29:23.202Z,68.20
2018-12-27T17:35:15.846Z,66.53
2018-12-27T17:37:59.011Z,67.83
2018-12-27T17:43:51.894Z,65.00
2018-12-27T17:46:35.851Z,66.90
2018-12-27T17:52:53.426Z,81.30
2018-12-27T17:55:36.270Z,78.23
2018-12-27T18:01:28.771Z,70.50
2018-12-27T18:04:11.917Z,76.63
2018-12-27T18:10:04.412Z,84.77
2018-12-27T18:12:47.147Z,80.47
2018-12-27T18:19:06.262Z,73.77
2018-12-27T18:21:49.674Z,65.27
2018-12-27T18:24:32.617Z,66.80
2018-12-27T18:30:45.714Z,79.07
2018-12-27T18:33:30.424Z,78.23
2018-12-27T18:36:13.352Z,76.20
2018-12-27T18:42:04.728Z,73.47
2018-12-27T18:44:47.878Z,72.70
2018-12-27T18:47:38.357Z,77.27
2018-12-27T18:50:21.431Z,73.87
2018-12-27T18:53:11.991Z,76.07
2018-12-27T18:55:55.509Z,70.40
2018-12-27T18:58:46.083Z,72.50
2018-12-27T19:01:29.015Z,75.03
2018-12-27T19:04:19.581Z,78.73
2018-12-27T19:07:02.954Z,75.33
2018-12-27T19:09:53.607Z,78.63
2018-12-27T19:12:55.569Z,88.80
2018-12-27T19:16:05.236Z,88.40
2018-12-27T19:18:50.208Z,90.77
2018-12-27T19:22:01.999Z,89.53
2018-12-27T19:24:45.391Z,90.30
2018-12-27T19:27:36.029Z,83.00
2018-12-27T19:30:19.360Z,84.87
2018-12-27T19:33:09.953Z,86.07
2018-12-27T19:35:59.125Z,81.57
2018-12-27T19:38:49.670Z,79.30
2018-12-27T19:41:33.016Z,81.27
2018-12-27T19:44:24.568Z,82.80
2018-12-27T19:47:07.426Z,76.10
2018-12-27T19:49:57.985Z,66.43
2018-12-27T19:52:40.932Z,63.70
2018-12-27T19:58:33.007Z,61.07
2018-12-27T20:01:16.481Z,54.50
2018-12-27T20:04:06.954Z,57.80
2018-12-27T20:06:49.906Z,58.53
2018-12-27T20:09:32.836Z,58.90
2018-12-27T20:12:16.014Z,54.00
2018-12-27T20:15:25.655Z,66.70
2018-12-27T20:18:08.397Z,69.50
2018-12-27T20:20:58.958Z,62.10
2018-12-27T20:23:42.271Z,71.33
2018-12-27T20:26:32.851Z,68.60
2018-12-27T20:29:16.266Z,72.03
2018-12-27T20:32:06.841Z,70.20
2018-12-27T20:34:50.318Z,72.03
2018-12-27T20:37:40.932Z,78.63
2018-12-27T20:40:24.524Z,77.50
2018-12-27T20:43:15.099Z,70.37
2018-12-27T20:45:57.870Z,82.30
2018-12-27T20:48:48.477Z,65.23
2018-12-27T20:51:31.201Z,61.27
2018-12-27T20:57:43.865Z,70.60
2018-12-27T21:00:29.656Z,72.37
2018-12-27T21:06:46.450Z,75.93
2018-12-27T21:09:29.364Z,70.03
2018-12-27T21:12:12.157Z,77.07
2018-12-27T21:14:53.742Z,76.80
2018-12-27T21:18:03.175Z,76.53
2018-12-27T21:20:46.147Z,82.33
2018-12-27T21:23:55.588Z,66.53
2018-12-27T21:26:38.544Z,71.80
2018-12-27T21:29:48.055Z,75.33
2018-12-27T21:32:31.236Z,67.30
2018-12-27T21:35:40.672Z,73.03
2018-12-27T21:38:23.576Z,70.27
2018-12-27T21:47:17.736Z,79.27
2018-12-27T21:50:02.617Z,79.30
2018-12-27T21:58:56.979Z,78.90
2018-12-27T22:01:40.514Z,62.77
2018-12-27T22:04:31.114Z,66.07
2018-12-27T22:07:14.321Z,67.90
2018-12-27T22:13:19.373Z,59.80
2018-12-27T22:16:00.908Z,64.77
2018-12-27T22:18:44.113Z,61.47
2018-12-27T22:21:34.650Z,53.90
2018-12-27T22:24:17.973Z,48.93
2018-12-27T22:27:08.504Z,49.07
2018-12-27T22:29:51.965Z,44.90
2018-12-27T22:32:42.492Z,51.63
2018-12-27T22:35:26.047Z,43.63
2018-12-27T22:38:16.602Z,42.03
2018-12-27T22:40:59.918Z,45.53
2018-12-27T22:50:12.567Z,39.53
2018-12-27T22:52:55.994Z,38.23
2018-12-27T22:56:05.673Z,44.90
2018-12-27T22:58:49.067Z,38.77
2018-12-27T23:01:39.633Z,36.07
2018-12-27T23:04:21.217Z,34.90
2018-12-27T23:07:11.657Z,38.50
2018-12-27T23:09:55.067Z,36.93
2018-12-27T23:15:58.686Z,33.63
2018-12-27T23:18:41.637Z,29.50
2018-12-27T23:21:23.175Z,34.60
2018-12-27T23:24:13.716Z,34.40
2018-12-27T23:26:57.113Z,36.53
2018-12-27T23:29:47.713Z,32.80
2018-12-27T23:32:30.526Z,29.33
2018-12-27T23:35:21.062Z,32.80
2018-12-27T23:38:04.401Z,34.23
2018-12-27T23:40:54.915Z,33.77
2018-12-27T23:43:38.323Z,31.40
2018-12-27T23:46:28.904Z,29.27
2018-12-27T23:49:12.417Z,29.60
2018-12-27T23:52:03.006Z,29.50
2018-12-27T23:54:46.420Z,27.47
